»·PEaware :: BOXED15 KEND-KEND

BOXED15 :: KEND-KEND

FLIGHT INFORMATION

Flight Status: Arrived
Operator: Unknown
More flights by this operator :: More flights under this callsign
Pilot: Peyton C. (22177)
Aircraft: BEECH AIRCRAFT T-6A TEXAN
(TEX2)
More flights by this aircraft type
Origin: KEND Vance AFB
United States
Destination: KEND Vance AFB
United States
More flights between these airports :: More routes between these airports
Route: +END9 PLANS
File this flight plan on PilotEdge
Remarks:
Altitude:
(Current/Filed)
0ft
Speed:
(Current/Filed)
0kts
Departed: 26-Mar-20 10:11 AM
Arrived: 26-Mar-20 10:50 AM
Distance/Time
Traveled:
1nm/0:39
Distance/Time
To Go:
Arrived

Flight Plot

Page will automatically refresh every two minutes.


Map Options




Map Legend


Flown Route
Filed Route
Departure Airport
Arrival Airport
Navaid (VOR, NDB)
Fix

Horizontal Profiles

Position Reports

Time Latitude Longitude Heading Altitude Ground
Speed
26-Mar-20 10:01 36.346971 -97.909990 217 1279ft 0kts
26-Mar-20 10:02 36.346971 -97.909990 216 1279ft 0kts
26-Mar-20 10:03 36.346971 -97.909990 216 1279ft 0kts
26-Mar-20 10:04 36.346971 -97.909990 217 1279ft 0kts
26-Mar-20 10:05 36.346971 -97.909990 217 1279ft 0kts
26-Mar-20 10:06 36.346971 -97.909990 217 1279ft 0kts
26-Mar-20 10:07 36.346971 -97.909990 217 1279ft 0kts
26-Mar-20 10:08 36.346971 -97.909990 217 1279ft 0kts
26-Mar-20 10:09 36.346856 -97.910104 221 1279ft 0kts
26-Mar-20 10:10 36.344348 -97.911029 181 1281ft 80kts
26-Mar-20 10:11 36.301621 -97.904688 170 2876ft 185kts
26-Mar-20 10:12 36.249214 -97.891317 171 5067ft 228kts
26-Mar-20 10:13 36.252245 -97.836809 359 4961ft 245kts
26-Mar-20 10:14 36.317353 -97.860308 339 4964ft 249kts
26-Mar-20 10:15 36.382284 -97.889711 336 4989ft 248kts
26-Mar-20 10:16 36.450334 -97.905491 3 4992ft 255kts
26-Mar-20 10:17 36.523742 -97.901278 1 5656ft 237kts
26-Mar-20 10:18 36.598700 -97.896116 356 6040ft 275kts
26-Mar-20 10:19 36.634744 -97.985830 284 4180ft 276kts
26-Mar-20 10:20 36.661023 -98.079256 287 4154ft 278kts
26-Mar-20 10:21 36.682628 -98.173272 284 4324ft 262kts
26-Mar-20 10:22 36.703237 -98.265837 284 4152ft 262kts
26-Mar-20 10:23 36.724084 -98.361201 284 2726ft 259kts
26-Mar-20 10:24 36.738863 -98.423221 283 4471ft 183kts
26-Mar-20 10:25 36.750350 -98.483586 283 4324ft 160kts
26-Mar-20 10:26 36.761403 -98.550044 275 3169ft 233kts
26-Mar-20 10:27 36.769632 -98.624295 274 3140ft 194kts
26-Mar-20 10:28 36.805183 -98.650247 337 3029ft 142kts
26-Mar-20 10:29 36.786133 -98.670344 181 1628ft 131kts
26-Mar-20 10:30 36.755467 -98.658135 96 2894ft 139kts
26-Mar-20 10:31 36.764079 -98.609451 89 5291ft 137kts
26-Mar-20 10:32 36.754149 -98.556098 105 6258ft 197kts
26-Mar-20 10:33 36.736103 -98.464781 102 5752ft 278kts
26-Mar-20 10:34 36.720906 -98.370626 101 5645ft 251kts
26-Mar-20 10:35 36.709691 -98.284267 101 5565ft 250kts
26-Mar-20 10:36 36.720267 -98.202846 76 5995ft 246kts
26-Mar-20 10:37 36.698030 -98.123244 124 6046ft 254kts
26-Mar-20 10:38 36.656611 -98.048672 126 6038ft 257kts
26-Mar-20 10:39 36.668043 -97.961577 80 6267ft 252kts
26-Mar-20 10:40 36.668182 -97.867888 94 6086ft 257kts
26-Mar-20 10:41 36.619227 -97.823056 182 4574ft 252kts
26-Mar-20 10:42 36.550986 -97.821335 185 2867ft 212kts
26-Mar-20 10:43 36.500753 -97.849051 227 2250ft 180kts
26-Mar-20 10:44 36.474027 -97.902852 211 2323ft 173kts
26-Mar-20 10:45 36.423827 -97.909051 191 2351ft 171kts
26-Mar-20 10:46 36.369176 -97.910224 182 2323ft 200kts
26-Mar-20 10:47 36.347066 -97.892824 354 2313ft 177kts
26-Mar-20 10:48 36.346366 -97.911020 180 1295ft 127kts
26-Mar-20 10:49 36.331038 -97.910642 129 1294ft 0kts
26-Mar-20 10:50 36.346971 -97.909990 216 1279ft 0kts

Navigation Log

Ident Type
Flight plan parsing failed, navigation log unavailable